Time;durP1;ratioP1;P1;durP2;ratioP2;P2;SDS_P1;SDS_P2;PMS_P1;PMS_P2;Temp;Humidity;BMP_temperature;BMP_pressure;BME280_temperature;BME280_humidity;BME280_pressure;Samples;Min_cycle;Max_cycle;Signal;HPM_P1;HPM_P2
2021/07/11 00:03:00;;;;;;;2.17;1.40;;;23.90;60.40;;;;;;6238820;28;20057;-71
2021/07/11 00:06:01;;;;;;;2.67;1.50;;;23.90;60.40;;;;;;6239555;28;20030;-71
2021/07/11 00:09:02;;;;;;;2.22;1.70;;;23.90;60.30;;;;;;6243839;28;20222;-71
2021/07/11 00:12:02;;;;;;;2.80;1.73;;;23.90;60.40;;;;;;6244170;28;20069;-71
2021/07/11 00:15:05;;;;;;;1.80;1.55;;;23.90;60.40;;;;;;6244005;28;20033;-73
2021/07/11 00:18:06;;;;;;;2.45;1.67;;;23.90;60.30;;;;;;6244737;28;20025;-71
2021/07/11 00:21:06;;;;;;;1.73;1.52;;;23.90;60.40;;;;;;6244179;28;20032;-71
2021/07/11 00:24:07;;;;;;;1.75;1.55;;;23.90;60.40;;;;;;6243675;28;20021;-73
2021/07/11 00:27:08;;;;;;;1.95;1.52;;;23.90;60.40;;;;;;6243546;28;20163;-71
2021/07/11 00:30:10;;;;;;;2.15;1.30;;;23.90;60.40;;;;;;6244381;28;20033;-71
2021/07/11 00:33:10;;;;;;;1.92;1.55;;;23.90;60.40;;;;;;6244153;28;20028;-71
2021/07/11 00:36:11;;;;;;;1.92;1.40;;;23.90;60.40;;;;;;6243833;28;20021;-71
2021/07/11 00:39:12;;;;;;;1.60;1.40;;;23.90;60.40;;;;;;6243768;28;20033;-71
2021/07/11 00:42:14;;;;;;;2.33;1.60;;;23.90;60.40;;;;;;6243616;28;20026;-71
2021/07/11 00:45:15;;;;;;;1.63;1.23;;;23.90;60.40;;;;;;6243978;28;20035;-71
2021/07/11 00:48:17;;;;;;;1.92;1.67;;;23.90;60.40;;;;;;6243771;28;20026;-71
2021/07/11 00:51:18;;;;;;;2.60;1.70;;;23.90;60.40;;;;;;6244746;28;20502;-71
2021/07/11 00:54:21;;;;;;;2.13;1.70;;;23.90;60.40;;;;;;6218449;28;20026;-71
2021/07/11 00:57:21;;;;;;;1.90;1.45;;;23.90;60.40;;;;;;6232178;28;20021;-71
2021/07/11 01:00:23;;;;;;;2.30;1.55;;;23.90;60.40;;;;;;6244067;28;20022;-71
2021/07/11 01:03:39;;;;;;;2.95;1.55;;;23.90;60.40;;;;;;6243080;28;20029;-71
2021/07/11 01:06:42;;;;;;;1.77;1.45;;;23.90;60.40;;;;;;6243591;28;20021;-71
2021/07/11 01:09:44;;;;;;;1.90;1.52;;;23.90;60.40;;;;;;6243217;28;20034;-71
2021/07/11 01:12:47;;;;;;;1.40;1.30;;;23.90;60.40;;;;;;6242963;28;20109;-71
2021/07/11 01:15:51;;;;;;;2.65;1.40;;;23.90;60.40;;;;;;6243298;28;20025;-71
2021/07/11 01:18:58;;;;;;;1.60;1.38;;;23.90;60.40;;;;;;6242213;28;20457;-71
2021/07/11 01:22:05;;;;;;;1.67;1.30;;;23.90;60.40;;;;;;6243112;28;20030;-71
2021/07/11 01:25:13;;;;;;;2.15;1.60;;;23.90;60.40;;;;;;6242038;28;20026;-71
2021/07/11 01:28:18;;;;;;;1.95;1.40;;;23.90;60.40;;;;;;6241947;28;20085;-71
2021/07/11 01:31:20;;;;;;;2.05;1.60;;;23.90;60.40;;;;;;6242948;28;20400;-71
2021/07/11 01:34:22;;;;;;;1.80;1.48;;;23.90;60.40;;;;;;6242257;28;20128;-71
2021/07/11 01:37:23;;;;;;;2.10;1.50;;;23.90;60.40;;;;;;6242764;28;20025;-71
2021/07/11 01:40:24;;;;;;;1.70;1.40;;;23.90;60.40;;;;;;6242479;28;20044;-72
2021/07/11 01:43:25;;;;;;;2.45;1.60;;;23.90;60.40;;;;;;6242051;28;20025;-71
2021/07/11 01:46:27;;;;;;;2.10;1.40;;;23.90;60.40;;;;;;6242188;28;20536;-71
2021/07/11 01:49:29;;;;;;;1.73;1.42;;;23.90;60.40;;;;;;6241588;28;20048;-71
2021/07/11 01:52:29;;;;;;;1.60;1.33;;;23.90;60.40;;;;;;6241717;28;20033;-71
2021/07/11 01:55:30;;;;;;;1.33;1.17;;;23.90;60.40;;;;;;6193207;28;20453;-71
2021/07/11 01:58:31;;;;;;;1.55;1.45;;;23.90;60.40;;;;;;6210671;28;20025;-71
2021/07/11 02:01:32;;;;;;;1.45;1.33;;;23.90;60.40;;;;;;6241845;28;20061;-71
2021/07/11 02:04:33;;;;;;;2.10;1.50;;;23.90;60.40;;;;;;6241665;28;20389;-71
2021/07/11 02:07:33;;;;;;;1.60;1.40;;;23.90;60.40;;;;;;6242039;28;20246;-72
2021/07/11 02:10:34;;;;;;;1.98;1.50;;;23.90;60.40;;;;;;6241416;28;20061;-71
2021/07/11 02:13:46;;;;;;;2.10;1.30;;;23.90;60.40;;;;;;6241509;28;20116;-71
2021/07/11 02:16:59;;;;;;;1.40;1.20;;;23.90;60.40;;;;;;6241286;28;20024;-71
2021/07/11 02:20:01;;;;;;;1.70;1.48;;;23.90;60.40;;;;;;6241857;28;20064;-71
2021/07/11 02:23:02;;;;;;;1.42;1.23;;;23.90;60.40;;;;;;6241076;28;20112;-71
2021/07/11 02:26:06;;;;;;;3.20;1.42;;;23.90;60.40;;;;;;6241509;28;20047;-71
2021/07/11 02:29:07;;;;;;;1.38;1.27;;;23.90;61.20;;;;;;6240894;28;20065;-71
2021/07/11 02:32:09;;;;;;;1.42;1.17;;;23.90;60.40;;;;;;6240236;28;20397;-71
2021/07/11 02:35:12;;;;;;;1.77;1.45;;;23.90;60.40;;;;;;6240767;28;20507;-71
2021/07/11 02:38:16;;;;;;;1.73;1.40;;;23.90;60.40;;;;;;6240875;28;20035;-71
2021/07/11 02:41:19;;;;;;;1.60;1.40;;;23.90;60.40;;;;;;6240862;28;20029;-72
2021/07/11 02:44:20;;;;;;;1.90;1.15;;;23.90;60.40;;;;;;6240681;28;20033;-71
2021/07/11 02:47:29;;;;;;;1.40;1.30;;;23.90;60.40;;;;;;6240717;28;20385;-71
2021/07/11 02:50:31;;;;;;;1.50;1.20;;;23.90;60.40;;;;;;6240285;28;20034;-71
2021/07/11 02:53:32;;;;;;;1.80;1.52;;;23.90;60.40;;;;;;6236416;28;20542;-71
2021/07/11 02:56:38;;;;;;;1.33;1.20;;;23.90;60.40;;;;;;6236983;28;20025;-71
2021/07/11 02:59:39;;;;;;;1.88;1.42;;;23.90;60.40;;;;;;6240317;28;20455;-71
2021/07/11 03:02:40;;;;;;;1.80;1.35;;;23.90;60.40;;;;;;6240312;28;20048;-71
2021/07/11 03:05:41;;;;;;;1.40;1.30;;;23.90;60.40;;;;;;6222973;28;20034;-71
2021/07/11 03:08:42;;;;;;;1.50;1.30;;;23.90;60.40;;;;;;6216263;28;20038;-71
2021/07/11 03:11:44;;;;;;;1.30;1.20;;;23.90;60.40;;;;;;6238499;28;20641;-71
2021/07/11 03:14:49;;;;;;;1.55;1.30;;;23.90;60.40;;;;;;6239839;28;20387;-71
2021/07/11 03:17:51;;;;;;;1.77;1.48;;;23.90;60.40;;;;;;6240362;28;20388;-71
2021/07/11 03:20:52;;;;;;;1.95;1.58;;;23.90;60.40;;;;;;6236179;28;20565;-71
2021/07/11 03:23:54;;;;;;;1.52;1.33;;;23.90;60.40;;;;;;6234545;28;20104;-71
2021/07/11 03:26:56;;;;;;;1.40;1.20;;;23.90;60.40;;;;;;6239665;28;20480;-71
2021/07/11 03:30:18;;;;;;;1.92;1.42;;;23.90;60.40;;;;;;6240193;28;20037;-71
2021/07/11 03:33:22;;;;;;;1.55;1.02;;;23.90;60.40;;;;;;6217772;28;20477;-72
2021/07/11 03:36:24;;;;;;;1.23;1.13;;;23.90;60.40;;;;;;6231334;28;20032;-71
2021/07/11 03:39:26;;;;;;;1.60;1.20;;;23.90;60.40;;;;;;6240476;28;20121;-71
2021/07/11 03:42:32;;;;;;;1.40;1.17;;;23.90;60.40;;;;;;6239318;28;20033;-71
2021/07/11 03:45:34;;;;;;;1.05;0.95;;;23.90;60.40;;;;;;6239937;28;20366;-71
2021/07/11 03:48:46;;;;;;;1.75;1.40;;;23.90;60.40;;;;;;6236834;28;20172;-71
2021/07/11 03:51:47;;;;;;;1.88;1.27;;;23.90;60.40;;;;;;6239920;28;20040;-71
2021/07/11 03:54:49;;;;;;;1.77;1.50;;;23.90;60.40;;;;;;6203159;28;20033;-71
2021/07/11 03:57:51;;;;;;;1.60;1.20;;;23.90;60.40;;;;;;6239403;28;20036;-71
2021/07/11 04:00:54;;;;;;;1.20;1.10;;;23.90;60.40;;;;;;6239038;28;20041;-71
2021/07/11 04:03:56;;;;;;;1.67;1.40;;;23.90;60.40;;;;;;6239865;28;20484;-71
2021/07/11 04:06:57;;;;;;;1.27;1.17;;;23.90;60.40;;;;;;6239024;28;20105;-71
2021/07/11 04:09:58;;;;;;;1.25;1.15;;;23.90;60.40;;;;;;6239573;28;20034;-71
2021/07/11 04:12:59;;;;;;;1.50;1.30;;;23.90;60.40;;;;;;6239150;28;20496;-72
2021/07/11 04:16:05;;;;;;;1.85;1.30;;;23.90;60.40;;;;;;6239647;28;20101;-71
2021/07/11 04:19:06;;;;;;;1.10;1.00;;;23.90;60.30;;;;;;6239837;28;20025;-71
2021/07/11 04:22:09;;;;;;;2.10;1.23;;;23.90;60.40;;;;;;6239578;28;20029;-71
2021/07/11 04:25:11;;;;;;;1.23;1.13;;;23.90;60.40;;;;;;6239163;28;20550;-71
2021/07/11 04:28:12;;;;;;;1.30;1.10;;;23.90;60.40;;;;;;6238905;28;20054;-71
2021/07/11 04:31:12;;;;;;;1.23;1.10;;;23.90;60.40;;;;;;6239379;28;20546;-71
2021/07/11 04:34:23;;;;;;;1.10;1.00;;;23.90;60.40;;;;;;6239404;28;20056;-71
2021/07/11 04:37:23;;;;;;;2.13;1.13;;;23.90;60.40;;;;;;6238918;28;20438;-71
2021/07/11 04:40:24;;;;;;;1.40;1.30;;;23.90;60.40;;;;;;6238849;28;20021;-71
2021/07/11 04:43:24;;;;;;;1.73;1.42;;;23.90;60.40;;;;;;6238816;28;20416;-71
2021/07/11 04:46:25;;;;;;;1.38;1.15;;;23.90;60.40;;;;;;6239078;28;20033;-71
2021/07/11 04:49:26;;;;;;;1.13;1.02;;;23.90;60.40;;;;;;6239031;28;20242;-71
2021/07/11 04:52:26;;;;;;;1.88;1.30;;;23.90;60.40;;;;;;6238577;28;20206;-71
2021/07/11 04:55:27;;;;;;;1.10;0.93;;;23.90;61.20;;;;;;6197555;28;20026;-71
2021/07/11 04:58:27;;;;;;;1.20;1.10;;;23.90;60.40;;;;;;6239010;28;20492;-71
2021/07/11 05:01:28;;;;;;;1.30;1.20;;;23.90;60.40;;;;;;6238414;28;20682;-71
2021/07/11 05:04:29;;;;;;;1.17;1.08;;;23.90;60.40;;;;;;6243605;28;20036;-71
2021/07/11 05:07:29;;;;;;;1.33;1.00;;;23.90;60.40;;;;;;6242930;28;20375;-71
2021/07/11 05:10:30;;;;;;;1.25;1.13;;;23.90;60.40;;;;;;6242926;28;20318;-71
2021/07/11 05:13:30;;;;;;;1.10;1.00;;;23.90;60.40;;;;;;6242949;28;20514;-71
2021/07/11 05:16:31;;;;;;;1.45;1.10;;;23.90;60.30;;;;;;6242983;28;20117;-71
2021/07/11 05:19:32;;;;;;;1.40;1.10;;;23.90;60.40;;;;;;6242524;28;20493;-71
2021/07/11 05:22:33;;;;;;;1.38;1.10;;;23.90;60.40;;;;;;6209954;28;20025;-71
2021/07/11 05:25:33;;;;;;;1.20;1.10;;;23.90;60.40;;;;;;6238245;28;20045;-71
2021/07/11 05:28:34;;;;;;;1.25;1.15;;;23.90;60.40;;;;;;6230694;28;20396;-71
2021/07/11 05:31:34;;;;;;;1.00;0.88;;;23.90;60.40;;;;;;6236998;28;20053;-71
2021/07/11 05:34:35;;;;;;;1.33;1.10;;;23.90;60.40;;;;;;6254255;28;20277;-71
2021/07/11 05:37:35;;;;;;;1.13;1.00;;;23.90;60.30;;;;;;6235427;28;20025;-71
2021/07/11 05:40:36;;;;;;;1.23;1.13;;;23.90;60.30;;;;;;6235969;28;20124;-71
2021/07/11 05:43:36;;;;;;;0.90;0.90;;;23.90;60.40;;;;;;6239385;28;20091;-71
2021/07/11 05:46:37;;;;;;;1.40;1.10;;;23.90;60.40;;;;;;6218072;28;20030;-71
2021/07/11 05:49:38;;;;;;;1.33;1.10;;;23.90;60.40;;;;;;6235669;28;20037;-71
2021/07/11 05:52:38;;;;;;;1.05;0.95;;;23.90;60.40;;;;;;6234602;28;20214;-71
2021/07/11 05:55:40;;;;;;;1.58;0.90;;;23.90;60.40;;;;;;6224747;28;20037;-71
2021/07/11 05:58:41;;;;;;;1.33;1.13;;;23.90;60.40;;;;;;6235814;28;20034;-72
2021/07/11 06:01:41;;;;;;;1.58;1.20;;;23.90;60.20;;;;;;6239486;28;20026;-71
2021/07/11 06:04:43;;;;;;;4.32;1.73;;;23.90;60.20;;;;;;6206237;28;20389;-71
2021/07/11 06:07:44;;;;;;;6.72;1.90;;;23.90;60.20;;;;;;6236568;28;20038;-70
2021/07/11 06:10:44;;;;;;;4.32;1.88;;;24.00;60.40;;;;;;6239869;28;20068;-71
2021/07/11 06:13:46;;;;;;;8.80;2.90;;;23.90;60.40;;;;;;6227447;28;20497;-71
2021/07/11 06:16:46;;;;;;;3.95;1.90;;;23.90;60.40;;;;;;6227526;28;20029;-72
2021/07/11 06:19:47;;;;;;;7.50;2.80;;;23.90;60.40;;;;;;6235986;28;20037;-71
2021/07/11 06:22:47;;;;;;;5.97;2.30;;;23.90;60.40;;;;;;6238578;28;20029;-71
2021/07/11 06:25:48;;;;;;;6.10;2.78;;;23.90;60.40;;;;;;6239764;28;20061;-71
2021/07/11 06:28:48;;;;;;;5.35;2.78;;;23.90;60.40;;;;;;6233542;28;20479;-71
2021/07/11 06:31:49;;;;;;;4.93;2.05;;;23.90;60.40;;;;;;6215208;28;20212;-71
2021/07/11 06:34:49;;;;;;;4.10;2.22;;;23.90;60.40;;;;;;6221980;28;20481;-71
2021/07/11 06:37:51;;;;;;;4.35;2.15;;;23.90;60.50;;;;;;6214872;28;20061;-72
2021/07/11 06:40:51;;;;;;;10.00;3.10;;;23.90;60.50;;;;;;6237804;28;20041;-71
2021/07/11 06:43:52;;;;;;;14.75;5.18;;;23.90;60.50;;;;;;6234618;28;20037;-71
2021/07/11 06:46:52;;;;;;;13.48;3.67;;;23.90;60.40;;;;;;6233845;28;20384;-71
2021/07/11 06:49:53;;;;;;;9.38;2.63;;;24.00;60.50;;;;;;6220911;28;20449;-71
2021/07/11 06:52:54;;;;;;;5.80;2.40;;;24.00;60.60;;;;;;6190345;28;20038;-71
2021/07/11 06:55:54;;;;;;;11.65;2.90;;;24.00;61.10;;;;;;6234838;28;20118;-71
2021/07/11 06:58:55;;;;;;;8.30;3.28;;;24.10;60.80;;;;;;6231152;28;20120;-71
2021/07/11 07:01:55;;;;;;;8.23;3.25;;;24.10;60.50;;;;;;6238734;28;20399;-71
2021/07/11 07:04:56;;;;;;;10.93;3.75;;;24.20;60.50;;;;;;6215670;28;20027;-72
2021/07/11 07:07:56;;;;;;;9.65;3.65;;;24.20;60.60;;;;;;6222678;28;20108;-71
2021/07/11 07:10:57;;;;;;;9.77;3.80;;;24.20;60.40;;;;;;6234966;28;20025;-71
2021/07/11 07:13:57;;;;;;;12.57;4.20;;;24.20;60.30;;;;;;6219047;28;20342;-71
2021/07/11 07:16:58;;;;;;;13.13;3.97;;;24.20;60.30;;;;;;6239131;28;20022;-71
2021/07/11 07:19:58;;;;;;;12.13;4.45;;;24.20;60.20;;;;;;6240557;28;20555;-71
2021/07/11 07:23:00;;;;;;;8.93;3.88;;;24.20;60.10;;;;;;6240487;28;20041;-71
2021/07/11 07:26:00;;;;;;;10.57;4.03;;;24.30;60.10;;;;;;6240653;28;20589;-71
2021/07/11 07:29:01;;;;;;;10.48;4.28;;;24.30;60.10;;;;;;6240565;28;20057;-71
2021/07/11 07:32:02;;;;;;;13.82;4.45;;;24.30;60.00;;;;;;6240451;28;20419;-71
2021/07/11 07:35:05;;;;;;;13.65;3.95;;;24.30;60.00;;;;;;6240820;28;20021;-71
2021/07/11 07:38:06;;;;;;;12.30;3.85;;;24.30;60.00;;;;;;6240659;28;20029;-71
2021/07/11 07:41:07;;;;;;;7.63;3.75;;;24.30;60.00;;;;;;6240414;28;20029;-71
2021/07/11 07:44:07;;;;;;;12.73;4.35;;;24.30;60.00;;;;;;6240584;28;20029;-71
2021/07/11 07:47:08;;;;;;;11.15;4.18;;;24.30;60.00;;;;;;6239991;28;20029;-71
2021/07/11 07:50:11;;;;;;;12.30;4.68;;;24.30;60.00;;;;;;6240466;28;20440;-71
2021/07/11 07:53:11;;;;;;;13.90;5.18;;;24.30;59.90;;;;;;6228853;28;20097;-71
2021/07/11 07:56:12;;;;;;;10.88;4.38;;;24.30;59.90;;;;;;6214860;28;20029;-71
2021/07/11 07:59:12;;;;;;;9.45;4.53;;;24.30;59.90;;;;;;6240618;28;20508;-71
2021/07/11 08:02:13;;;;;;;11.10;4.72;;;24.30;59.90;;;;;;6233285;28;20030;-71
2021/07/11 08:05:13;;;;;;;13.30;5.07;;;24.30;59.90;;;;;;6218316;28;20103;-71
2021/07/11 08:08:14;;;;;;;10.75;4.82;;;24.30;59.80;;;;;;6240085;28;20038;-71
2021/07/11 08:11:14;;;;;;;7.53;3.85;;;24.30;59.80;;;;;;6240320;28;20052;-71
2021/07/11 08:14:15;;;;;;;12.13;5.10;;;24.30;59.80;;;;;;6239736;28;20033;-71
2021/07/11 08:17:16;;;;;;;11.40;5.03;;;24.30;59.80;;;;;;6239761;28;20040;-72
2021/07/11 08:20:21;;;;;;;9.82;4.50;;;24.30;59.80;;;;;;6239588;28;20025;-71
2021/07/11 08:23:21;;;;;;;10.82;4.65;;;24.30;59.80;;;;;;6239919;28;20031;-71
2021/07/11 08:26:22;;;;;;;10.60;4.70;;;24.30;59.80;;;;;;6240303;28;20022;-71
2021/07/11 08:29:23;;;;;;;9.18;4.28;;;24.40;59.80;;;;;;6241643;28;20057;-71
2021/07/11 08:32:23;;;;;;;9.80;4.07;;;24.40;59.80;;;;;;6245997;28;20468;-71
2021/07/11 08:35:24;;;;;;;13.02;4.57;;;24.40;59.90;;;;;;6244690;28;20033;-71
2021/07/11 08:38:24;;;;;;;9.18;4.53;;;24.40;59.80;;;;;;6244439;28;20108;-71
2021/07/11 08:41:26;;;;;;;12.38;4.50;;;24.40;59.80;;;;;;6244578;28;20500;-71
2021/07/11 08:44:27;;;;;;;9.60;4.25;;;24.40;59.80;;;;;;6244645;28;20021;-71
2021/07/11 08:47:27;;;;;;;11.00;4.85;;;24.40;59.80;;;;;;6244276;28;20026;-71
2021/07/11 08:50:30;;;;;;;10.63;4.38;;;24.40;59.80;;;;;;6244248;28;20029;-71
2021/07/11 08:53:34;;;;;;;8.63;4.13;;;24.40;59.80;;;;;;6227077;28;20026;-71
2021/07/11 08:56:35;;;;;;;9.63;4.65;;;24.40;59.80;;;;;;6207608;28;20021;-71
2021/07/11 08:59:37;;;;;;;11.32;5.00;;;24.40;59.80;;;;;;6244189;28;20105;-71
2021/07/11 09:02:37;;;;;;;8.02;3.53;;;24.40;59.70;;;;;;6243825;28;20037;-71
2021/07/11 09:05:40;;;;;;;9.52;4.40;;;24.40;59.70;;;;;;6244097;28;20337;-71
2021/07/11 09:08:42;;;;;;;9.95;4.50;;;24.40;59.80;;;;;;6243594;28;20076;-71
2021/07/11 09:11:55;;;;;;;8.98;4.05;;;24.40;59.70;;;;;;6239889;28;20476;-71
2021/07/11 09:14:56;;;;;;;9.63;4.72;;;24.40;59.70;;;;;;6237137;28;20025;-71
2021/07/11 09:17:57;;;;;;;12.88;4.78;;;24.40;59.70;;;;;;6240850;28;20099;-71
2021/07/11 09:21:13;;;;;;;9.93;4.10;;;24.40;59.70;;;;;;6207715;28;20282;-71
2021/07/11 09:24:14;;;;;;;10.88;4.30;;;24.40;59.80;;;;;;6214963;28;20026;-71
2021/07/11 09:27:17;;;;;;;10.20;3.85;;;24.40;59.80;;;;;;6224775;28;20080;-71
2021/07/11 09:30:18;;;;;;;9.52;4.03;;;24.40;59.70;;;;;;6248286;28;20041;-72
2021/07/11 09:33:19;;;;;;;12.32;4.15;;;24.40;59.70;;;;;;6241473;28;20339;-72
2021/07/11 09:36:21;;;;;;;7.80;3.53;;;24.40;59.70;;;;;;6232246;28;20113;-71
2021/07/11 09:39:24;;;;;;;7.00;3.92;;;24.40;60.60;;;;;;6234935;28;20030;-72
2021/07/11 09:42:26;;;;;;;10.05;3.47;;;24.40;59.70;;;;;;6237123;28;20036;-71
2021/07/11 09:45:29;;;;;;;8.45;3.97;;;24.40;59.70;;;;;;6230131;28;20021;-70
2021/07/11 09:48:35;;;;;;;7.75;3.80;;;24.40;59.80;;;;;;6241175;28;20072;-71
2021/07/11 09:51:35;;;;;;;8.63;4.53;;;24.50;60.10;;;;;;6231921;28;20022;-71
2021/07/11 09:54:36;;;;;;;12.15;4.82;;;24.50;59.90;;;;;;6222958;28;20030;-71
2021/07/11 09:57:39;;;;;;;9.23;3.83;;;24.50;59.90;;;;;;6238381;28;20116;-71
2021/07/11 10:00:42;;;;;;;7.25;3.78;;;24.50;60.10;;;;;;6231202;28;20014;-71
2021/07/11 10:03:42;;;;;;;7.03;3.78;;;24.50;59.90;;;;;;6227566;28;20037;-72
2021/07/11 10:06:43;;;;;;;5.82;3.38;;;24.50;59.70;;;;;;6216866;28;20084;-71
2021/07/11 10:09:44;;;;;;;9.18;4.20;;;24.60;60.30;;;;;;6233899;28;20033;-71
2021/07/11 10:12:45;;;;;;;9.60;3.97;;;24.60;59.90;;;;;;6238309;28;20025;-71
2021/07/11 10:15:46;;;;;;;7.43;3.40;;;24.60;59.90;;;;;;6222226;28;20029;-71
2021/07/11 10:18:49;;;;;;;8.52;3.72;;;24.60;59.90;;;;;;6240324;28;20446;-71
2021/07/11 10:21:50;;;;;;;7.82;3.38;;;24.60;59.80;;;;;;6228868;28;20028;-73
2021/07/11 10:24:51;;;;;;;5.93;3.10;;;24.60;59.70;;;;;;6240115;28;20022;-72
2021/07/11 10:28:07;;;;;;;7.90;3.65;;;24.60;59.90;;;;;;6216994;28;20064;-71
2021/07/11 10:31:26;;;;;;;8.00;4.07;;;24.60;59.90;;;;;;6217753;28;20056;-70
2021/07/11 10:34:27;;;;;;;6.40;3.40;;;24.60;60.30;;;;;;6229114;28;20137;-71
2021/07/11 10:37:28;;;;;;;8.00;3.88;;;24.60;59.90;;;;;;6232695;28;20030;-70
2021/07/11 10:40:33;;;;;;;7.85;3.60;;;24.60;60.00;;;;;;6236630;28;20028;-70
2021/07/11 10:43:33;;;;;;;;;;;24.60;60.10;;;;;;6226368;28;20026;-70
2021/07/11 10:46:37;;;;;;;7.90;3.83;;;24.60;61.00;;;;;;6231581;28;20425;-70
2021/07/11 10:49:51;;;;;;;9.10;3.50;;;24.60;60.10;;;;;;6239258;28;20052;-70
2021/07/11 10:52:52;;;;;;;6.47;3.38;;;24.60;60.10;;;;;;6228640;28;20073;-70
2021/07/11 10:55:52;;;;;;;7.22;3.22;;;24.60;60.10;;;;;;6231722;28;20584;-70
2021/07/11 10:58:53;;;;;;;6.47;3.20;;;24.60;61.00;;;;;;6220045;28;20532;-70
2021/07/11 11:01:54;;;;;;;7.68;3.58;;;24.60;60.20;;;;;;6227203;28;20117;-70
2021/07/11 11:05:11;;;;;;;6.55;3.55;;;24.60;60.40;;;;;;6215597;28;20026;-70
2021/07/11 11:08:15;;;;;;;6.93;3.17;;;24.60;60.10;;;;;;6219420;28;20033;-70
2021/07/11 11:11:16;;;;;;;8.38;3.75;;;24.60;60.20;;;;;;6211340;28;20026;-70
2021/07/11 11:14:27;;;;;;;9.27;3.53;;;24.60;60.20;;;;;;6233493;28;20420;-70
2021/07/11 11:17:33;;;;;;;3.92;2.45;;;24.60;60.20;;;;;;6233144;28;20488;-70
2021/07/11 11:20:33;;;;;;;4.55;2.70;;;24.60;60.10;;;;;;6239102;28;20026;-70
2021/07/11 11:23:44;;;;;;;7.50;2.80;;;24.60;60.90;;;;;;6234335;28;20140;-70
2021/07/11 11:26:44;;;;;;;4.50;2.65;;;24.60;60.10;;;;;;6233108;28;20388;-70
2021/07/11 11:29:45;;;;;;;4.70;2.58;;;24.60;60.10;;;;;;6238446;28;20034;-70
2021/07/11 11:32:54;;;;;;;5.75;2.80;;;24.60;60.20;;;;;;6231869;28;20147;-70
2021/07/11 11:35:55;;;;;;;5.63;3.08;;;24.60;60.10;;;;;;6237914;28;20087;-70
2021/07/11 11:39:00;;;;;;;5.35;2.72;;;24.60;60.10;;;;;;6233204;28;20049;-70
2021/07/11 11:42:05;;;;;;;5.28;2.80;;;24.60;60.00;;;;;;6232732;28;20503;-69
2021/07/11 11:45:07;;;;;;;4.55;2.30;;;24.60;60.00;;;;;;6237292;28;20021;-70
2021/07/11 11:48:11;;;;;;;5.57;2.58;;;24.60;60.00;;;;;;6218013;28;20037;-70
2021/07/11 11:51:17;;;;;;;5.35;2.75;;;24.50;60.00;;;;;;6227539;28;20053;-70
2021/07/11 11:54:24;;;;;;;3.83;2.30;;;24.50;60.00;;;;;;6217690;28;20096;-70
2021/07/11 11:57:32;;;;;;;3.28;2.08;;;24.50;60.10;;;;;;6231868;28;20028;-70
2021/07/11 12:00:33;;;;;;;4.80;2.47;;;24.50;60.10;;;;;;6236611;28;20052;-70
2021/07/11 12:03:37;;;;;;;7.25;2.72;;;24.50;60.10;;;;;;6224297;28;20022;-70
2021/07/11 12:06:39;;;;;;;5.93;2.72;;;24.50;60.10;;;;;;6226736;28;20136;-71
2021/07/11 12:09:40;;;;;;;4.55;2.53;;;24.50;60.10;;;;;;6235389;28;20194;-70
2021/07/11 12:12:40;;;;;;;3.80;2.30;;;24.50;60.10;;;;;;6224151;28;20032;-70
2021/07/11 12:15:41;;;;;;;4.70;2.17;;;24.50;60.20;;;;;;6228525;28;20476;-70
2021/07/11 12:18:52;;;;;;;5.30;2.45;;;24.50;60.20;;;;;;6224607;28;20030;-70
2021/07/11 12:21:54;;;;;;;4.13;2.38;;;24.50;60.20;;;;;;6233262;28;20432;-70
2021/07/11 12:25:07;;;;;;;5.15;2.67;;;24.40;60.20;;;;;;6245405;28;20105;-70
2021/07/11 12:28:13;;;;;;;7.43;2.30;;;24.40;60.20;;;;;;6244948;28;20404;-70
2021/07/11 12:31:24;;;;;;;5.22;2.05;;;24.40;60.20;;;;;;6245345;28;20072;-70
2021/07/11 12:34:25;;;;;;;3.97;2.22;;;24.40;60.20;;;;;;6245052;28;20488;-70
2021/07/11 12:37:26;;;;;;;3.33;1.90;;;24.40;60.20;;;;;;6244845;28;20018;-70
2021/07/11 12:40:27;;;;;;;3.88;2.35;;;24.40;60.20;;;;;;6245191;28;20029;-70
2021/07/11 12:43:32;;;;;;;2.67;1.83;;;24.40;60.20;;;;;;6244620;28;20045;-70
2021/07/11 12:46:33;;;;;;;3.63;2.00;;;24.40;61.10;;;;;;6244672;28;20392;-70
2021/07/11 12:49:34;;;;;;;3.00;2.00;;;24.40;60.20;;;;;;6244319;28;20448;-70
2021/07/11 12:52:37;;;;;;;4.20;2.10;;;24.40;60.30;;;;;;6243369;28;20061;-70
2021/07/11 12:55:39;;;;;;;4.43;2.00;;;24.40;60.20;;;;;;6220118;28;20421;-70
2021/07/11 12:58:43;;;;;;;2.72;1.83;;;24.40;60.20;;;;;;6241927;28;20143;-70
2021/07/11 13:01:46;;;;;;;3.63;2.00;;;24.40;60.20;;;;;;6239028;28;20026;-70
2021/07/11 13:05:02;;;;;;;3.15;1.70;;;24.40;60.20;;;;;;6220313;28;20501;-70
2021/07/11 13:08:06;;;;;;;4.00;2.15;;;24.40;61.10;;;;;;6233591;28;20037;-70
2021/07/11 13:11:07;;;;;;;2.63;1.70;;;24.40;60.20;;;;;;6244525;28;20099;-70
2021/07/11 13:14:14;;;;;;;2.95;1.70;;;24.40;60.20;;;;;;6243526;28;20396;-70
2021/07/11 13:17:15;;;;;;;3.65;2.13;;;24.40;60.20;;;;;;6243900;28;20030;-70
2021/07/11 13:20:15;;;;;;;3.20;1.80;;;24.40;60.20;;;;;;6243732;28;20040;-70
2021/07/11 13:23:16;;;;;;;3.33;1.67;;;24.40;60.20;;;;;;6226648;28;20085;-70
2021/07/11 13:26:16;;;;;;;3.10;1.65;;;24.40;60.20;;;;;;6219606;28;20065;-70
2021/07/11 13:29:17;;;;;;;2.40;1.40;;;24.40;60.20;;;;;;6241141;28;20554;-70
2021/07/11 13:32:20;;;;;;;2.83;1.77;;;24.40;60.20;;;;;;6243917;28;20029;-70
2021/07/11 13:35:22;;;;;;;3.25;1.63;;;24.40;60.20;;;;;;6244197;28;20105;-70
2021/07/11 13:38:23;;;;;;;4.28;1.65;;;24.40;60.20;;;;;;6243842;28;20345;-70
2021/07/11 13:41:24;;;;;;;2.47;1.85;;;24.40;60.20;;;;;;6243912;28;20041;-70
2021/07/11 13:44:25;;;;;;;3.00;1.70;;;24.40;60.20;;;;;;6243635;28;20356;-70
2021/07/11 13:47:25;;;;;;;3.17;1.70;;;24.40;60.20;;;;;;6242946;28;20484;-70
2021/07/11 13:50:26;;;;;;;2.65;1.63;;;24.40;60.20;;;;;;6238898;28;20030;-70
2021/07/11 13:53:27;;;;;;;2.65;1.67;;;24.40;60.20;;;;;;6221347;28;20531;-70
2021/07/11 13:56:27;;;;;;;2.65;1.63;;;24.40;60.20;;;;;;6218573;28;20022;-70
2021/07/11 13:59:28;;;;;;;2.00;1.30;;;24.40;60.20;;;;;;6237164;28;20056;-71
2021/07/11 14:02:28;;;;;;;3.75;1.52;;;24.40;60.20;;;;;;6243334;28;20435;-70
2021/07/11 14:05:29;;;;;;;3.33;1.38;;;24.40;60.20;;;;;;6243429;28;20079;-70
2021/07/11 14:08:32;;;;;;;3.55;1.42;;;24.40;60.20;;;;;;6242821;28;20384;-70
2021/07/11 14:11:33;;;;;;;2.95;1.50;;;24.40;60.20;;;;;;6243190;28;20377;-70
2021/07/11 14:14:33;;;;;;;3.13;1.70;;;24.40;60.20;;;;;;6242598;28;20036;-71
2021/07/11 14:17:34;;;;;;;2.00;1.40;;;24.40;60.20;;;;;;6243109;28;20026;-70
2021/07/11 14:20:35;;;;;;;1.85;1.20;;;24.40;60.20;;;;;;6242673;28;20349;-71
2021/07/11 14:23:35;;;;;;;2.75;1.50;;;24.40;60.20;;;;;;6237513;28;20029;-70
2021/07/11 14:26:36;;;;;;;1.92;1.40;;;24.40;60.20;;;;;;6242874;28;20353;-70
2021/07/11 14:29:37;;;;;;;1.98;1.65;;;24.40;60.20;;;;;;6242139;28;20136;-70
2021/07/11 14:32:37;;;;;;;2.40;1.58;;;24.40;60.20;;;;;;6242881;28;20036;-70
2021/07/11 14:35:39;;;;;;;1.80;1.45;;;24.40;60.20;;;;;;6242270;28;20025;-70
2021/07/11 14:38:39;;;;;;;1.67;1.40;;;24.40;60.20;;;;;;6241900;28;20029;-70
2021/07/11 14:41:40;;;;;;;1.98;1.23;;;24.40;60.20;;;;;;6242261;28;20419;-70
2021/07/11 14:44:41;;;;;;;1.33;1.20;;;24.40;60.20;;;;;;6242308;28;20400;-70
2021/07/11 14:47:42;;;;;;;1.85;1.10;;;24.40;60.10;;;;;;6242011;28;20492;-71
2021/07/11 14:50:47;;;;;;;1.58;1.20;;;24.40;60.10;;;;;;6241876;28;20041;-70
2021/07/11 14:53:47;;;;;;;2.20;1.40;;;24.40;60.20;;;;;;6233367;28;20029;-70
2021/07/11 14:56:48;;;;;;;1.80;1.30;;;24.40;60.20;;;;;;6229555;28;20522;-70
2021/07/11 14:59:48;;;;;;;1.83;1.40;;;24.40;60.10;;;;;;6241405;28;20028;-70
2021/07/11 15:02:49;;;;;;;1.67;1.33;;;24.40;60.10;;;;;;6241603;28;20556;-70
2021/07/11 15:05:51;;;;;;;1.80;1.17;;;24.40;60.10;;;;;;6241679;28;20029;-70
2021/07/11 15:08:51;;;;;;;1.23;1.10;;;24.40;60.10;;;;;;6241630;28;20551;-70
2021/07/11 15:11:52;;;;;;;1.42;1.08;;;24.40;60.20;;;;;;6223455;28;20029;-70
2021/07/11 15:14:54;;;;;;;2.33;1.30;;;24.40;60.10;;;;;;6221754;28;20025;-70
2021/07/11 15:18:01;;;;;;;1.70;1.25;;;24.40;60.10;;;;;;6241092;28;20086;-70
2021/07/11 15:21:02;;;;;;;1.83;1.40;;;24.40;60.20;;;;;;6241386;28;20061;-70
2021/07/11 15:24:03;;;;;;;2.03;1.27;;;24.40;60.10;;;;;;6227392;28;20032;-70
2021/07/11 15:27:04;;;;;;;1.38;1.00;;;24.40;60.10;;;;;;6237626;28;20072;-70
2021/07/11 15:30:05;;;;;;;1.38;1.10;;;24.40;60.10;;;;;;6241160;28;20029;-70
2021/07/11 15:33:06;;;;;;;1.00;0.90;;;24.40;60.10;;;;;;6241379;28;20040;-70
2021/07/11 15:36:10;;;;;;;1.75;1.10;;;24.40;60.20;;;;;;6240347;28;20030;-70
2021/07/11 15:39:11;;;;;;;1.85;1.15;;;24.40;60.10;;;;;;6240798;28;20025;-69
2021/07/11 15:42:12;;;;;;;1.48;1.13;;;24.40;60.10;;;;;;6240880;28;20069;-70
2021/07/11 15:45:13;;;;;;;2.03;1.35;;;24.40;60.20;;;;;;6240704;28;20033;-70
2021/07/11 15:48:14;;;;;;;1.20;1.10;;;24.40;60.10;;;;;;6256548;28;20079;-70